BAW926 LGAV-HEAX
Flight info
| Callsign | BAW926 |
|---|---|
| Flight time | 1h 19m |
| Altitude | 35000 |
| Route | KEA UL607 PAXIS L607 NABSI |
| Aircraft | A320/M-SDE3FGHIRWY/LB1 |
Departure
| Time | 2026-05-04 15:00 |
|---|---|
| Airport | Athens Eleftherios Venizelos International Airport (LGAV) |
Arrival
| Time | 2026-05-04 16:19 |
|---|---|
| Airport | Alexandria International Airport (HEAX) |
| Time | Latitude | Longitude | Altitude | Speed | Heading |
|---|---|---|---|---|---|
| 2026-05-04 14:31 | 37.93513 | 23.94744 | 302 ft | 0 kts | 308° |
| 2026-05-04 14:51 | 37.93504 | 23.94759 | 301 ft | 2 kts | 308° |
| 2026-05-04 14:51 | 37.93493 | 23.94777 | 301 ft | 3 kts | 306° |
| 2026-05-04 14:52 | 37.93485 | 23.94797 | 301 ft | 3 kts | 270° |
| 2026-05-04 14:52 | 37.93488 | 23.94819 | 301 ft | 3 kts | 234° |
| 2026-05-04 14:52 | 37.93491 | 23.94824 | 301 ft | 1 kts | 225° |
| 2026-05-04 14:52 | 37.93487 | 23.94822 | 301 ft | 0 kts | 211° |
| 2026-05-04 14:54 | 37.93474 | 23.94813 | 304 ft | 8 kts | 205° |
| 2026-05-04 14:55 | 37.93406 | 23.94766 | 303 ft | 12 kts | 212° |
| 2026-05-04 14:55 | 37.93329 | 23.94703 | 302 ft | 14 kts | 214° |
| 2026-05-04 14:55 | 37.93243 | 23.94627 | 301 ft | 16 kts | 215° |
| 2026-05-04 14:55 | 37.93132 | 23.94597 | 301 ft | 18 kts | 174° |
| 2026-05-04 14:56 | 37.93030 | 23.94672 | 300 ft | 17 kts | 180° |
| 2026-05-04 14:56 | 37.92931 | 23.94600 | 302 ft | 13 kts | 217° |
| 2026-05-04 14:56 | 37.92854 | 23.94525 | 302 ft | 15 kts | 217° |
| 2026-05-04 14:56 | 37.92771 | 23.94445 | 303 ft | 16 kts | 217° |
| 2026-05-04 14:57 | 37.92694 | 23.94371 | 305 ft | 14 kts | 217° |
| 2026-05-04 14:57 | 37.92610 | 23.94295 | 305 ft | 16 kts | 211° |
| 2026-05-04 14:57 | 37.92525 | 23.94344 | 306 ft | 14 kts | 127° |
| 2026-05-04 14:57 | 37.92487 | 23.94440 | 309 ft | 12 kts | 79° |
| 2026-05-04 14:58 | 37.92521 | 23.94485 | 307 ft | 0 kts | 37° |
| 2026-05-04 14:59 | 37.92529 | 23.94494 | 307 ft | 5 kts | 37° |
| 2026-05-04 14:59 | 37.92711 | 23.94668 | 303 ft | 68 kts | 37° |
| 2026-05-04 14:59 | 37.94071 | 23.95954 | 329 ft | 162 kts | 40° |
| 2026-05-04 15:00 | 37.94980 | 23.96774 | 948 ft | 159 kts | 38° |
| 2026-05-04 15:00 | 37.95872 | 23.97619 | 1624 ft | 163 kts | 35° |
| 2026-05-04 15:00 | 37.96823 | 23.98541 | 1949 ft | 183 kts | 34° |
| 2026-05-04 15:01 | 37.99113 | 24.00752 | 2596 ft | 230 kts | 34° |
| 2026-05-04 15:01 | 38.00419 | 24.02012 | 3375 ft | 239 kts | 34° |
| 2026-05-04 15:01 | 38.01751 | 24.03302 | 4259 ft | 242 kts | 34° |
| 2026-05-04 15:01 | 38.03099 | 24.04610 | 5098 ft | 247 kts | 33° |
| 2026-05-04 15:02 | 38.04330 | 24.06243 | 5681 ft | 269 kts | 57° |
| 2026-05-04 15:02 | 38.04849 | 24.08574 | 6459 ft | 285 kts | 87° |
| 2026-05-04 15:02 | 38.04329 | 24.11029 | 7200 ft | 297 kts | 121° |
| 2026-05-04 15:02 | 38.02842 | 24.12834 | 8024 ft | 301 kts | 150° |
| 2026-05-04 15:03 | 38.00982 | 24.14069 | 8886 ft | 303 kts | 154° |
| 2026-05-04 15:03 | 37.99071 | 24.15223 | 9717 ft | 306 kts | 154° |
| 2026-05-04 15:03 | 37.97136 | 24.16359 | 10435 ft | 312 kts | 154° |
| 2026-05-04 15:03 | 37.95087 | 24.17564 | 10658 ft | 335 kts | 154° |
| 2026-05-04 15:04 | 37.92926 | 24.18848 | 11057 ft | 349 kts | 153° |
| 2026-05-04 15:04 | 37.90716 | 24.20174 | 11706 ft | 353 kts | 153° |
| 2026-05-04 15:04 | 37.88490 | 24.21522 | 12389 ft | 357 kts | 152° |
| 2026-05-04 15:04 | 37.86274 | 24.22869 | 13084 ft | 359 kts | 152° |
| 2026-05-04 15:05 | 37.84010 | 24.24252 | 13786 ft | 362 kts | 152° |
| 2026-05-04 15:05 | 37.81734 | 24.25643 | 14416 ft | 365 kts | 152° |
| 2026-05-04 15:05 | 37.79437 | 24.27044 | 15038 ft | 367 kts | 152° |
| 2026-05-04 15:05 | 37.77129 | 24.28448 | 15651 ft | 369 kts | 152° |
| 2026-05-04 15:06 | 37.74809 | 24.29858 | 16244 ft | 372 kts | 152° |
| 2026-05-04 15:06 | 37.72469 | 24.31283 | 16845 ft | 374 kts | 152° |
| 2026-05-04 15:06 | 37.70119 | 24.32709 | 17446 ft | 377 kts | 153° |
| 2026-05-04 15:07 | 37.65347 | 24.35596 | 18606 ft | 383 kts | 153° |
| 2026-05-04 15:07 | 37.63752 | 24.36562 | 18970 ft | 384 kts | 153° |
| 2026-05-04 15:07 | 37.61336 | 24.38025 | 19509 ft | 387 kts | 153° |
| 2026-05-04 15:07 | 37.58905 | 24.39498 | 20059 ft | 389 kts | 153° |
| 2026-05-04 15:08 | 37.56458 | 24.40982 | 20592 ft | 391 kts | 153° |
| 2026-05-04 15:08 | 37.53995 | 24.42471 | 21089 ft | 394 kts | 153° |
| 2026-05-04 15:08 | 37.51517 | 24.43966 | 21587 ft | 396 kts | 153° |
| 2026-05-04 15:08 | 37.49021 | 24.45469 | 22066 ft | 398 kts | 153° |
| 2026-05-04 15:09 | 37.46507 | 24.46981 | 22552 ft | 401 kts | 153° |
| 2026-05-04 15:09 | 37.43979 | 24.48501 | 23041 ft | 403 kts | 153° |
| 2026-05-04 15:09 | 37.41444 | 24.50027 | 23521 ft | 406 kts | 153° |
| 2026-05-04 15:10 | 37.36312 | 24.53115 | 24289 ft | 412 kts | 153° |
| 2026-05-04 15:10 | 37.33714 | 24.54677 | 24626 ft | 416 kts | 153° |
| 2026-05-04 15:10 | 37.28439 | 24.57842 | 25271 ft | 424 kts | 153° |
| 2026-05-04 15:11 | 37.25762 | 24.59446 | 25592 ft | 428 kts | 154° |
| 2026-05-04 15:11 | 37.23060 | 24.61062 | 25910 ft | 432 kts | 154° |
| 2026-05-04 15:11 | 37.20328 | 24.62694 | 26215 ft | 437 kts | 154° |
| 2026-05-04 15:11 | 37.17574 | 24.64340 | 26531 ft | 441 kts | 154° |
| 2026-05-04 15:12 | 37.14796 | 24.65997 | 26831 ft | 445 kts | 154° |
| 2026-05-04 15:12 | 37.11979 | 24.67676 | 27123 ft | 449 kts | 154° |
| 2026-05-04 15:12 | 37.09147 | 24.69362 | 27416 ft | 453 kts | 154° |
| 2026-05-04 15:12 | 37.06287 | 24.71064 | 27712 ft | 457 kts | 154° |
| 2026-05-04 15:13 | 37.03403 | 24.72780 | 28005 ft | 461 kts | 155° |
| 2026-05-04 15:13 | 37.00494 | 24.74509 | 28300 ft | 465 kts | 155° |
| 2026-05-04 15:13 | 36.97561 | 24.76249 | 28583 ft | 469 kts | 155° |
| 2026-05-04 15:13 | 36.94601 | 24.78005 | 28871 ft | 473 kts | 155° |
| 2026-05-04 15:14 | 36.91643 | 24.79862 | 29148 ft | 478 kts | 150° |
| 2026-05-04 15:14 | 36.88803 | 24.82048 | 29415 ft | 482 kts | 148° |
| 2026-05-04 15:14 | 36.85945 | 24.84268 | 29692 ft | 486 kts | 148° |
| 2026-05-04 15:14 | 36.83056 | 24.86509 | 29973 ft | 491 kts | 148° |
| 2026-05-04 15:15 | 36.80139 | 24.88766 | 30233 ft | 495 kts | 149° |
| 2026-05-04 15:15 | 36.77201 | 24.91033 | 30469 ft | 499 kts | 149° |
| 2026-05-04 15:15 | 36.74242 | 24.93313 | 30721 ft | 502 kts | 149° |
| 2026-05-04 15:16 | 36.68294 | 24.97884 | 31422 ft | 502 kts | 149° |
| 2026-05-04 15:16 | 36.65360 | 25.00157 | 31809 ft | 502 kts | 148° |
| 2026-05-04 15:16 | 36.59580 | 25.05120 | 32598 ft | 502 kts | 144° |
| 2026-05-04 15:17 | 36.56777 | 25.07712 | 33004 ft | 501 kts | 143° |
| 2026-05-04 15:17 | 36.51237 | 25.12884 | 33827 ft | 500 kts | 144° |
| 2026-05-04 15:17 | 36.48430 | 25.15453 | 34204 ft | 500 kts | 144° |
| 2026-05-04 15:18 | 36.45619 | 25.17980 | 34553 ft | 499 kts | 145° |
| 2026-05-04 15:18 | 36.42801 | 25.20484 | 34891 ft | 498 kts | 145° |
| 2026-05-04 15:18 | 36.39983 | 25.22976 | 35236 ft | 496 kts | 145° |
| 2026-05-04 15:19 | 36.34374 | 25.27947 | 35891 ft | 494 kts | 145° |
| 2026-05-04 15:19 | 36.31586 | 25.30427 | 36210 ft | 493 kts | 145° |
| 2026-05-04 15:19 | 36.26015 | 25.35389 | 36824 ft | 491 kts | 145° |
| 2026-05-04 15:20 | 36.23240 | 25.37856 | 37060 ft | 491 kts | 146° |
| 2026-05-04 15:20 | 36.20459 | 25.40323 | 37101 ft | 492 kts | 146° |
| 2026-05-04 15:20 | 36.14887 | 25.45259 | 37106 ft | 492 kts | 146° |
| 2026-05-04 15:21 | 36.09316 | 25.50186 | 37101 ft | 493 kts | 146° |
| 2026-05-04 15:22 | 36.00952 | 25.57574 | 37107 ft | 493 kts | 146° |
| 2026-05-04 15:22 | 35.92570 | 25.64948 | 37111 ft | 493 kts | 146° |
| 2026-05-04 15:23 | 35.86986 | 25.69859 | 37117 ft | 494 kts | 146° |
| 2026-05-04 15:23 | 35.81384 | 25.74773 | 37123 ft | 494 kts | 147° |
| 2026-05-04 15:24 | 35.70173 | 25.84571 | 37122 ft | 494 kts | 147° |
| 2026-05-04 15:25 | 35.64562 | 25.89463 | 37116 ft | 494 kts | 147° |
| 2026-05-04 15:26 | 35.56139 | 25.96802 | 37119 ft | 495 kts | 147° |
| 2026-05-04 15:26 | 35.47736 | 26.04099 | 37113 ft | 495 kts | 147° |
| 2026-05-04 15:27 | 35.39279 | 26.11405 | 37109 ft | 496 kts | 147° |
| 2026-05-04 15:28 | 35.30815 | 26.18719 | 37106 ft | 497 kts | 147° |
| 2026-05-04 15:29 | 35.22328 | 26.26027 | 37107 ft | 498 kts | 148° |
| 2026-05-04 15:30 | 35.02496 | 26.43034 | 37101 ft | 497 kts | 148° |
| 2026-05-04 15:31 | 34.93993 | 26.50292 | 37102 ft | 497 kts | 148° |
| 2026-05-04 15:32 | 34.79815 | 26.62356 | 37098 ft | 497 kts | 149° |
| 2026-05-04 15:34 | 34.65664 | 26.74361 | 37093 ft | 498 kts | 149° |
| 2026-05-04 15:34 | 34.57123 | 26.81552 | 37096 ft | 498 kts | 149° |
| 2026-05-04 15:35 | 34.48584 | 26.88744 | 37098 ft | 498 kts | 149° |
| 2026-05-04 15:36 | 34.40044 | 26.95938 | 37100 ft | 498 kts | 149° |
| 2026-05-04 15:36 | 34.34346 | 27.00714 | 37102 ft | 498 kts | 150° |
| 2026-05-04 15:37 | 34.28644 | 27.05477 | 37101 ft | 498 kts | 150° |
| 2026-05-04 15:37 | 34.22951 | 27.10227 | 37098 ft | 497 kts | 150° |
| 2026-05-04 15:38 | 34.17258 | 27.14975 | 37096 ft | 497 kts | 150° |
| 2026-05-04 15:38 | 34.11560 | 27.19717 | 37109 ft | 497 kts | 150° |
| 2026-05-04 15:39 | 34.05868 | 27.24441 | 37098 ft | 497 kts | 150° |
| 2026-05-04 15:40 | 33.97331 | 27.31553 | 37109 ft | 496 kts | 150° |
| 2026-05-04 15:40 | 33.91636 | 27.36253 | 37101 ft | 495 kts | 151° |
| 2026-05-04 15:41 | 33.85905 | 27.40850 | 37100 ft | 495 kts | 152° |
| 2026-05-04 15:41 | 33.80207 | 27.45392 | 37090 ft | 494 kts | 152° |
| 2026-05-04 15:42 | 33.74446 | 27.50002 | 37091 ft | 495 kts | 152° |
| 2026-05-04 15:42 | 33.68760 | 27.54569 | 37100 ft | 495 kts | 152° |
| 2026-05-04 15:43 | 33.63043 | 27.59160 | 37100 ft | 494 kts | 152° |
| 2026-05-04 15:43 | 33.57325 | 27.63734 | 37101 ft | 494 kts | 152° |
| 2026-05-04 15:44 | 33.51602 | 27.68287 | 37106 ft | 494 kts | 152° |
| 2026-05-04 15:44 | 33.45873 | 27.72846 | 37103 ft | 494 kts | 152° |
| 2026-05-04 15:45 | 33.40155 | 27.77407 | 37100 ft | 494 kts | 152° |
| 2026-05-04 15:45 | 33.34431 | 27.81954 | 37105 ft | 493 kts | 152° |
| 2026-05-04 15:46 | 33.28719 | 27.86491 | 37103 ft | 493 kts | 152° |
| 2026-05-04 15:46 | 33.23011 | 27.91021 | 37101 ft | 493 kts | 153° |
| 2026-05-04 15:47 | 33.17332 | 27.95503 | 37103 ft | 492 kts | 153° |
| 2026-05-04 15:47 | 33.11615 | 28.00002 | 37110 ft | 492 kts | 153° |
| 2026-05-04 15:48 | 33.05892 | 28.04505 | 37112 ft | 492 kts | 153° |
| 2026-05-04 15:48 | 32.97337 | 28.11240 | 37113 ft | 491 kts | 153° |
| 2026-05-04 15:49 | 32.91629 | 28.15726 | 37111 ft | 490 kts | 153° |
| 2026-05-04 15:49 | 32.85934 | 28.20179 | 37107 ft | 490 kts | 153° |
| 2026-05-04 15:50 | 32.80236 | 28.24624 | 37111 ft | 489 kts | 153° |
| 2026-05-04 15:50 | 32.74560 | 28.29070 | 37111 ft | 488 kts | 153° |
| 2026-05-04 15:51 | 32.68894 | 28.33502 | 37108 ft | 487 kts | 153° |
| 2026-05-04 15:51 | 32.63230 | 28.37911 | 37114 ft | 487 kts | 154° |
| 2026-05-04 15:52 | 32.57569 | 28.42303 | 37116 ft | 486 kts | 154° |
| 2026-05-04 15:52 | 32.52865 | 28.45956 | 37115 ft | 486 kts | 153° |
| 2026-05-04 15:53 | 32.47208 | 28.50351 | 37112 ft | 486 kts | 154° |
| 2026-05-04 15:53 | 32.40635 | 28.55434 | 37113 ft | 485 kts | 154° |
| 2026-05-04 15:54 | 32.35904 | 28.59085 | 37110 ft | 485 kts | 154° |
| 2026-05-04 15:54 | 32.30256 | 28.63448 | 37116 ft | 484 kts | 154° |
| 2026-05-04 15:55 | 32.24614 | 28.67796 | 37117 ft | 484 kts | 154° |
| 2026-05-04 15:55 | 32.18976 | 28.72143 | 37114 ft | 484 kts | 154° |
| 2026-05-04 15:56 | 32.13375 | 28.76435 | 37112 ft | 483 kts | 154° |
| 2026-05-04 15:56 | 32.07704 | 28.80786 | 37112 ft | 483 kts | 154° |
| 2026-05-04 15:57 | 32.02108 | 28.85063 | 37114 ft | 482 kts | 154° |
| 2026-05-04 15:57 | 31.96476 | 28.89377 | 37108 ft | 482 kts | 154° |
| 2026-05-04 15:58 | 31.90856 | 28.93680 | 36638 ft | 485 kts | 154° |
| 2026-05-04 15:58 | 31.87975 | 28.95868 | 35573 ft | 497 kts | 154° |
| 2026-05-04 15:58 | 31.85060 | 28.98083 | 34880 ft | 499 kts | 154° |
| 2026-05-04 15:59 | 31.82160 | 29.00298 | 34166 ft | 494 kts | 154° |
| 2026-05-04 15:59 | 31.79293 | 29.02493 | 33211 ft | 489 kts | 154° |
| 2026-05-04 15:59 | 31.76455 | 29.04665 | 32296 ft | 484 kts | 154° |
| 2026-05-04 15:59 | 31.73708 | 29.06923 | 31410 ft | 485 kts | 144° |
| 2026-05-04 16:00 | 31.71361 | 29.09773 | 30570 ft | 487 kts | 133° |
| 2026-05-04 16:00 | 31.69244 | 29.12873 | 29618 ft | 483 kts | 133° |
| 2026-05-04 16:00 | 31.67163 | 29.15946 | 28697 ft | 477 kts | 133° |
| 2026-05-04 16:00 | 31.65121 | 29.18977 | 27832 ft | 471 kts | 133° |
| 2026-05-04 16:01 | 31.63101 | 29.21975 | 26998 ft | 465 kts | 133° |
| 2026-05-04 16:01 | 31.61105 | 29.24926 | 26201 ft | 459 kts | 133° |
| 2026-05-04 16:01 | 31.59131 | 29.27830 | 25433 ft | 453 kts | 133° |
| 2026-05-04 16:01 | 31.57171 | 29.30705 | 24692 ft | 448 kts | 134° |
| 2026-05-04 16:02 | 31.55232 | 29.33543 | 23968 ft | 443 kts | 134° |
| 2026-05-04 16:02 | 31.53319 | 29.36349 | 23168 ft | 438 kts | 134° |
| 2026-05-04 16:02 | 31.49559 | 29.41867 | 21516 ft | 428 kts | 133° |
| 2026-05-04 16:03 | 31.47707 | 29.44580 | 20723 ft | 423 kts | 133° |
| 2026-05-04 16:03 | 31.45883 | 29.47251 | 19953 ft | 418 kts | 133° |
| 2026-05-04 16:03 | 31.44073 | 29.49894 | 19206 ft | 413 kts | 133° |
| 2026-05-04 16:03 | 31.42282 | 29.52506 | 18465 ft | 409 kts | 133° |
| 2026-05-04 16:04 | 31.40512 | 29.55087 | 17657 ft | 405 kts | 133° |
| 2026-05-04 16:04 | 31.37050 | 29.60139 | 16330 ft | 397 kts | 132° |
| 2026-05-04 16:04 | 31.35338 | 29.62632 | 15791 ft | 390 kts | 132° |
| 2026-05-04 16:05 | 31.33648 | 29.65095 | 15061 ft | 385 kts | 132° |
| 2026-05-04 16:05 | 31.31983 | 29.67523 | 14369 ft | 380 kts | 132° |
| 2026-05-04 16:05 | 31.28697 | 29.72312 | 13014 ft | 368 kts | 131° |
| 2026-05-04 16:06 | 31.27126 | 29.74591 | 12645 ft | 363 kts | 132° |
| 2026-05-04 16:06 | 31.22899 | 29.80717 | 11589 ft | 358 kts | 131° |
| 2026-05-04 16:07 | 31.20831 | 29.83713 | 11091 ft | 355 kts | 131° |
| 2026-05-04 16:07 | 31.16263 | 29.90330 | 10369 ft | 336 kts | 131° |
| 2026-05-04 16:08 | 31.14813 | 29.92432 | 10031 ft | 329 kts | 131° |
| 2026-05-04 16:08 | 31.10596 | 29.98314 | 9067 ft | 285 kts | 147° |
| 2026-05-04 16:09 | 31.07209 | 29.99621 | 8639 ft | 248 kts | 191° |
| 2026-05-04 16:09 | 31.03984 | 29.98554 | 8004 ft | 241 kts | 206° |
| 2026-05-04 16:10 | 31.00800 | 29.97295 | 7375 ft | 242 kts | 204° |
| 2026-05-04 16:11 | 30.96004 | 29.95414 | 6427 ft | 243 kts | 203° |
| 2026-05-04 16:11 | 30.94402 | 29.94786 | 6094 ft | 243 kts | 203° |
| 2026-05-04 16:12 | 30.89581 | 29.92902 | 5141 ft | 244 kts | 202° |
| 2026-05-04 16:12 | 30.84775 | 29.91024 | 4096 ft | 239 kts | 203° |
| 2026-05-04 16:13 | 30.81623 | 29.89789 | 3475 ft | 239 kts | 203° |
| 2026-05-04 16:13 | 30.79116 | 29.87604 | 3001 ft | 218 kts | 238° |
| 2026-05-04 16:14 | 30.77638 | 29.84832 | 3001 ft | 190 kts | 261° |
| 2026-05-04 16:14 | 30.78013 | 29.81993 | 3014 ft | 178 kts | 303° |
| 2026-05-04 16:15 | 30.80744 | 29.79291 | 2607 ft | 158 kts | 322° |
| 2026-05-04 16:16 | 30.82347 | 29.77889 | 2211 ft | 137 kts | 320° |
| 2026-05-04 16:16 | 30.84603 | 29.75912 | 1664 ft | 134 kts | 320° |
| 2026-05-04 16:17 | 30.86092 | 29.74607 | 1300 ft | 134 kts | 320° |
| 2026-05-04 16:18 | 30.88313 | 29.72658 | 751 ft | 135 kts | 321° |
| 2026-05-04 16:18 | 30.89063 | 29.71997 | 591 ft | 133 kts | 320° |
| 2026-05-04 16:19 | 30.91143 | 29.69866 | 149 ft | 116 kts | 319° |
| 2026-05-04 16:19 | 30.91845 | 29.69237 | 162 ft | 7 kts | 321° |
| 2026-05-04 16:20 | 30.91688 | 29.69161 | 161 ft | 12 kts | 222° |
| 2026-05-04 16:20 | 30.91685 | 29.69157 | 161 ft | 0 kts | 226° |